首页
METAR-TAF:

METAR-TAF

机场 :

岩國飛行場

岩國, 日本

纬度: 34-08N, 经度: 132-14E, 海拔: 2米

当前天气观测

该预报发布于26分钟前的00:55 UTC
风速4节,风向东北
温度 20°C
湿度 68%
气压 1018 hPa
能见度10公里或以上
少量云层高于600英尺
少量云层高于3000英尺

METAR: RJOI 240055Z 04004KT 9999 FEW006 FEW030 20/14 A3007 RMK SLP183 T02000139

时间: 10:21 (01:21 UTC)

预报

预报有效从23日的 21点(UTC)到 24日的 21点(UTC)
风速6节,风向
能见度10公里或以上
少量云层高于2000英尺
少量云层高于6000英尺
从 24日的 0200点(UTC)
风速5节,风向多变
能见度10公里或以上
少量云层高于4000英尺
从 24日的 1200点(UTC)
风速7节,风向
能见度10公里或以上
天空无云

TAF: RJOI 2321/2421 01006KT 9999 FEW020 FEW060 QNH3002INS FM240200 VRB05KT 9999 FEW040 QNH3000INS FM241200 01007KT 9999 SKC QNH3009INS T21/2406Z T12/2420Z

超过4000个机场的气象观测和天气预报(METAR&TAF报告)。

可查询的气象台以黄色和红色小点在地图上表示。

将鼠标移到小点上方,可查看气象台名称。

然后点击查看天气观测和预报。

如需切换地图:点击带黑十字的绿色按钮放大地图;点击带横线的绿色按钮缩小地图;或者点击绿色箭头查看邻近地区的地图。


METAR-TAF: